Time;durP1;ratioP1;P1;durP2;ratioP2;P2;SDS_P1;SDS_P2;PMS_P1;PMS_P2;Temp;Humidity;BMP_temperature;BMP_pressure;BME280_temperature;BME280_humidity;BME280_pressure;Samples;Min_cycle;Max_cycle;Signal;HPM_P1;HPM_P2
2021/09/04 00:00:34;;;;;;;17.25;12.02;;;19.00;99.90;;;;;;5015536;28;20034;-81
2021/09/04 00:03:00;;;;;;;17.83;11.88;;;18.90;99.90;;;;;;5015401;28;20044;-81
2021/09/04 00:05:26;;;;;;;14.05;11.45;;;18.90;99.90;;;;;;5015235;28;20034;-81
2021/09/04 00:07:52;;;;;;;15.63;11.75;;;18.90;99.90;;;;;;5015311;28;20018;-80
2021/09/04 00:10:18;;;;;;;16.35;12.02;;;18.90;99.90;;;;;;5014886;28;20052;-81
2021/09/04 00:12:44;;;;;;;16.40;12.43;;;18.80;99.90;;;;;;5014081;28;20022;-80
2021/09/04 00:15:11;;;;;;;16.95;12.02;;;18.80;99.90;;;;;;5030453;28;20480;-81
2021/09/04 00:17:37;;;;;;;15.68;13.75;;;18.80;99.90;;;;;;5014587;28;20033;-80
2021/09/04 00:20:03;;;;;;;20.83;14.13;;;18.70;99.90;;;;;;5015323;28;20026;-80
2021/09/04 00:22:29;;;;;;;16.58;13.77;;;18.80;99.90;;;;;;5014556;28;20121;-80
2021/09/04 00:24:55;;;;;;;16.17;12.80;;;18.80;99.90;;;;;;5014055;28;20560;-80
2021/09/04 00:27:20;;;;;;;16.95;14.85;;;18.80;99.90;;;;;;5013822;28;20053;-80
2021/09/04 00:29:46;;;;;;;20.65;14.60;;;18.80;99.90;;;;;;5014750;28;20034;-80
2021/09/04 00:32:12;;;;;;;16.70;14.57;;;18.80;99.90;;;;;;5014662;28;20014;-80
2021/09/04 00:34:38;;;;;;;17.77;15.25;;;18.80;99.90;;;;;;5015298;28;20499;-79
2021/09/04 00:37:04;;;;;;;21.50;15.70;;;18.90;99.90;;;;;;5015763;28;20053;-80
2021/09/04 00:39:30;;;;;;;20.30;15.55;;;18.90;99.90;;;;;;5013838;28;20102;-80
2021/09/04 00:41:56;;;;;;;20.10;16.35;;;18.90;99.90;;;;;;5017404;28;20081;-80
2021/09/04 00:44:22;;;;;;;19.27;16.27;;;18.90;99.90;;;;;;5016462;28;20592;-80
2021/09/04 00:46:48;;;;;;;23.30;16.30;;;18.90;99.90;;;;;;5031087;28;20028;-80
2021/09/04 00:49:16;;;;;;;20.17;17.30;;;18.80;99.90;;;;;;5014611;28;20022;-80
2021/09/04 00:51:42;;;;;;;18.92;16.58;;;18.80;99.90;;;;;;5014154;28;20033;-80
2021/09/04 00:54:08;;;;;;;19.40;17.33;;;18.80;99.90;;;;;;5014400;28;20153;-79
2021/09/04 00:56:37;;;;;;;23.60;18.83;;;18.80;99.90;;;;;;5013691;28;20032;-80
2021/09/04 00:59:08;;;;;;;24.35;20.55;;;18.80;99.90;;;;;;5013488;28;20040;-80
2021/09/04 01:01:34;;;;;;;24.33;20.45;;;18.80;99.90;;;;;;5014473;28;20025;-80
2021/09/04 01:04:00;;;;;;;24.60;21.73;;;18.90;99.90;;;;;;5014370;28;20029;-80
2021/09/04 01:06:26;;;;;;;29.70;21.58;;;18.80;99.90;;;;;;5017342;28;20026;-80
2021/09/04 01:08:52;;;;;;;25.85;21.05;;;18.80;99.90;;;;;;5020094;28;20034;-80
2021/09/04 01:11:18;;;;;;;30.73;24.02;;;18.80;99.90;;;;;;5016101;28;20083;-80
2021/09/04 01:13:44;;;;;;;32.05;23.50;;;18.80;99.90;;;;;;5017789;28;20026;-80
2021/09/04 01:16:10;;;;;;;29.20;23.50;;;18.80;99.90;;;;;;5013618;28;20108;-80
2021/09/04 01:18:36;;;;;;;29.33;23.88;;;18.80;99.90;;;;;;5014187;28;20101;-80
2021/09/04 01:21:03;;;;;;;31.65;24.45;;;18.80;99.90;;;;;;5015837;28;20034;-81
2021/09/04 01:23:29;;;;;;;29.40;23.98;;;18.80;99.90;;;;;;5012504;28;20034;-80
2021/09/04 01:25:55;;;;;;;35.05;24.98;;;18.80;99.90;;;;;;5012914;28;20026;-80
2021/09/04 01:28:22;;;;;;;40.40;26.67;;;18.70;99.90;;;;;;5012154;28;20485;-80
2021/09/04 01:30:48;;;;;;;35.70;26.67;;;18.70;99.90;;;;;;5013427;28;20029;-81
2021/09/04 01:33:15;;;;;;;40.70;27.27;;;18.80;99.90;;;;;;5013545;28;20053;-81
2021/09/04 01:35:41;;;;;;;38.03;26.25;;;18.80;99.90;;;;;;5013678;28;20033;-80
2021/09/04 01:38:06;;;;;;;38.80;25.23;;;18.70;99.90;;;;;;5011627;28;20456;-81
2021/09/04 01:40:32;;;;;;;34.70;24.98;;;18.70;99.90;;;;;;5013729;28;20042;-81
2021/09/04 01:42:58;;;;;;;38.33;24.33;;;18.70;99.90;;;;;;5013344;28;20396;-80
2021/09/04 01:45:23;;;;;;;32.03;23.13;;;18.60;99.90;;;;;;5013418;28;20018;-80
2021/09/04 01:47:49;;;;;;;37.13;21.58;;;18.50;99.90;;;;;;5012427;28;20018;-80
2021/09/04 01:50:16;;;;;;;30.50;21.40;;;18.50;99.90;;;;;;5013081;28;20397;-80
2021/09/04 01:52:43;;;;;;;35.35;22.13;;;18.50;99.90;;;;;;5011818;28;20133;-80
2021/09/04 01:55:11;;;;;;;31.13;20.98;;;18.50;99.90;;;;;;5012314;28;20028;-80
2021/09/04 01:57:37;;;;;;;32.75;21.98;;;18.60;99.90;;;;;;5013373;28;20029;-80
2021/09/04 02:00:08;;;;;;;37.50;21.83;;;18.60;99.90;;;;;;5045119;28;20025;-80
2021/09/04 02:02:34;;;;;;;35.05;20.27;;;18.70;99.90;;;;;;5013320;28;20438;-80
2021/09/04 02:05:00;;;;;;;25.40;21.08;;;18.70;99.90;;;;;;5011353;28;20022;-80
2021/09/04 02:07:26;;;;;;;26.33;19.52;;;18.70;99.90;;;;;;4993395;28;20038;-80
2021/09/04 02:09:51;;;;;;;30.15;19.63;;;18.70;99.90;;;;;;4993054;28;20039;-80
2021/09/04 02:12:17;;;;;;;27.65;20.02;;;18.70;99.90;;;;;;4993173;28;20617;-80
2021/09/04 02:14:42;;;;;;;29.85;20.50;;;18.70;99.90;;;;;;4993302;28;20058;-80
2021/09/04 02:17:08;;;;;;;34.33;21.73;;;18.70;99.90;;;;;;4992970;28;20100;-81
2021/09/04 02:19:34;;;;;;;25.58;20.67;;;18.70;99.90;;;;;;5008613;28;20034;-81
2021/09/04 02:21:59;;;;;;;26.05;21.63;;;18.70;99.90;;;;;;4993166;28;20042;-80
2021/09/04 02:24:25;;;;;;;29.08;21.33;;;18.70;99.90;;;;;;4993413;28;20053;-80
2021/09/04 02:26:51;;;;;;;24.15;20.30;;;18.70;99.90;;;;;;5006838;28;20484;-80
2021/09/04 02:29:16;;;;;;;26.63;21.08;;;18.60;99.90;;;;;;5012485;28;20109;-81
2021/09/04 02:31:42;;;;;;;28.23;21.42;;;18.60;99.90;;;;;;5012839;28;20021;-81
2021/09/04 02:34:09;;;;;;;23.30;20.42;;;18.50;99.90;;;;;;5011419;28;20465;-81
2021/09/04 02:36:35;;;;;;;26.90;19.75;;;18.50;99.90;;;;;;5012902;28;20018;-81
2021/09/04 02:39:01;;;;;;;26.58;20.38;;;18.50;99.90;;;;;;5010003;28;20065;-81
2021/09/04 02:41:27;;;;;;;25.42;21.13;;;18.40;99.90;;;;;;5012036;28;20037;-81
2021/09/04 02:43:53;;;;;;;29.25;21.90;;;18.40;99.90;;;;;;5012451;28;20030;-81
2021/09/04 02:46:18;;;;;;;30.95;21.40;;;18.40;99.90;;;;;;5012117;28;20026;-81
2021/09/04 02:48:44;;;;;;;29.50;21.25;;;18.30;99.90;;;;;;5012823;28;20401;-81
2021/09/04 02:51:09;;;;;;;28.40;21.38;;;18.30;99.90;;;;;;5012165;28;20120;-81
2021/09/04 02:53:35;;;;;;;32.35;21.70;;;18.30;99.90;;;;;;5012427;28;20030;-80
2021/09/04 02:56:01;;;;;;;29.60;21.67;;;18.30;99.90;;;;;;5011472;28;20485;-80
2021/09/04 02:58:27;;;;;;;29.95;21.40;;;18.20;99.90;;;;;;5012663;28;20030;-81
2021/09/04 03:00:52;;;;;;;30.08;22.85;;;18.20;99.90;;;;;;5011348;28;20113;-81
2021/09/04 03:03:18;;;;;;;28.13;21.77;;;18.20;99.90;;;;;;5012370;28;20209;-81
2021/09/04 03:05:44;;;;;;;26.23;22.92;;;18.20;99.90;;;;;;5004497;28;20049;-81
2021/09/04 03:08:10;;;;;;;29.00;22.50;;;18.20;99.90;;;;;;4993012;28;20104;-81
2021/09/04 03:10:36;;;;;;;32.90;23.45;;;18.30;99.90;;;;;;4991678;28;20482;-81
2021/09/04 03:13:02;;;;;;;30.50;21.50;;;18.30;99.90;;;;;;4992681;28;20401;-81
2021/09/04 03:15:27;;;;;;;25.55;21.05;;;18.30;99.90;;;;;;4992784;28;20076;-80
2021/09/04 03:17:53;;;;;;;27.70;22.30;;;18.30;99.90;;;;;;4992504;28;20038;-80
2021/09/04 03:20:19;;;;;;;27.63;21.48;;;18.30;99.90;;;;;;4992783;28;20081;-81
2021/09/04 03:22:45;;;;;;;27.23;21.60;;;18.30;99.90;;;;;;4992224;28;20465;-81
2021/09/04 03:25:11;;;;;;;26.55;21.33;;;18.30;99.90;;;;;;4992492;28;20114;-81
2021/09/04 03:27:37;;;;;;;26.63;22.20;;;18.30;99.90;;;;;;5011989;28;20018;-80
2021/09/04 03:30:03;;;;;;;30.48;22.05;;;18.40;99.90;;;;;;5010972;28;20025;-81
2021/09/04 03:32:29;;;;;;;30.02;23.05;;;18.40;99.90;;;;;;5012309;28;20421;-81
2021/09/04 03:34:57;;;;;;;28.70;22.25;;;18.30;99.90;;;;;;5012185;28;20022;-81
2021/09/04 03:37:23;;;;;;;32.90;22.95;;;18.30;99.90;;;;;;5011933;28;20100;-81
2021/09/04 03:39:49;;;;;;;26.08;22.27;;;18.30;99.90;;;;;;5010643;28;20485;-80
2021/09/04 03:42:14;;;;;;;31.35;23.20;;;18.30;99.90;;;;;;5012096;28;20053;-80
2021/09/04 03:44:40;;;;;;;33.22;22.67;;;18.30;99.90;;;;;;5011845;28;20068;-80
2021/09/04 03:47:07;;;;;;;26.63;22.33;;;18.30;99.90;;;;;;5012295;28;20034;-80
2021/09/04 03:49:32;;;;;;;28.15;22.70;;;18.20;99.90;;;;;;5012064;28;20593;-80
2021/09/04 03:51:58;;;;;;;27.83;22.83;;;18.20;99.90;;;;;;5011671;28;20030;-80
2021/09/04 03:54:24;;;;;;;25.30;21.45;;;18.20;99.90;;;;;;5011924;28;20072;-80
2021/09/04 03:56:50;;;;;;;32.65;22.92;;;18.10;99.90;;;;;;5010192;28;20489;-81
2021/09/04 03:59:19;;;;;;;30.50;22.83;;;18.20;99.90;;;;;;5013504;28;20026;-80
2021/09/04 04:01:45;;;;;;;30.83;23.40;;;18.20;99.90;;;;;;5015650;28;20025;-80
2021/09/04 04:04:10;;;;;;;35.17;22.80;;;18.20;99.90;;;;;;5015238;28;20041;-80
2021/09/04 04:06:36;;;;;;;30.00;21.80;;;18.20;99.90;;;;;;5015332;28;20038;-80
2021/09/04 04:09:01;;;;;;;26.35;21.27;;;18.10;99.90;;;;;;5029966;28;20030;-80
2021/09/04 04:11:27;;;;;;;31.88;21.77;;;18.10;99.90;;;;;;5013741;28;20161;-80
2021/09/04 04:13:53;;;;;;;28.02;21.77;;;18.10;99.90;;;;;;5014641;28;20143;-80
2021/09/04 04:16:18;;;;;;;30.80;21.63;;;18.00;99.90;;;;;;5014333;28;20069;-80
2021/09/04 04:18:44;;;;;;;25.10;21.52;;;18.00;99.90;;;;;;5015198;28;20060;-81
2021/09/04 04:21:09;;;;;;;32.03;23.70;;;18.00;99.90;;;;;;5014622;28;20034;-81
2021/09/04 04:23:35;;;;;;;31.48;22.05;;;17.90;99.90;;;;;;5015013;28;20029;-81
2021/09/04 04:26:01;;;;;;;39.35;22.98;;;17.90;99.90;;;;;;5012264;28;20037;-80
2021/09/04 04:28:26;;;;;;;30.30;23.13;;;17.90;99.90;;;;;;5014791;28;20022;-81
2021/09/04 04:30:52;;;;;;;26.23;22.30;;;17.80;99.90;;;;;;5014945;28;20109;-81
2021/09/04 04:33:18;;;;;;;35.22;22.60;;;17.80;99.90;;;;;;5014974;28;20148;-81
2021/09/04 04:35:44;;;;;;;28.48;23.05;;;17.70;99.90;;;;;;5014620;28;20030;-81
2021/09/04 04:38:10;;;;;;;30.35;24.30;;;17.80;99.90;;;;;;5014608;28;20550;-81
2021/09/04 04:40:37;;;;;;;32.92;24.67;;;17.80;99.90;;;;;;5011847;28;20033;-80
2021/09/04 04:43:03;;;;;;;30.92;23.33;;;17.70;99.90;;;;;;5014528;28;20029;-81
2021/09/04 04:45:29;;;;;;;31.45;23.13;;;17.70;99.90;;;;;;5014582;28;20079;-81
2021/09/04 04:47:54;;;;;;;30.40;21.75;;;17.60;99.90;;;;;;5014806;28;20033;-81
2021/09/04 04:50:20;;;;;;;24.92;21.05;;;17.60;99.90;;;;;;5014235;28;20033;-80
2021/09/04 04:52:46;;;;;;;25.25;19.85;;;17.50;99.90;;;;;;5014525;28;20493;-81
2021/09/04 04:55:12;;;;;;;25.13;19.70;;;17.50;99.90;;;;;;5013253;28;20404;-81
2021/09/04 04:57:38;;;;;;;26.35;20.30;;;17.40;99.90;;;;;;5014577;28;20540;-81
2021/09/04 05:00:05;;;;;;;28.90;21.15;;;17.30;99.90;;;;;;5014466;28;20026;-81
2021/09/04 05:02:30;;;;;;;27.80;20.52;;;17.30;99.90;;;;;;5014309;28;20022;-81
2021/09/04 05:04:56;;;;;;;30.67;21.40;;;17.30;99.90;;;;;;5012869;28;20075;-80
2021/09/04 05:07:22;;;;;;;24.27;21.08;;;17.30;99.90;;;;;;5014351;28;20026;-81
2021/09/04 05:09:47;;;;;;;28.65;23.38;;;17.20;99.90;;;;;;5013627;28;20105;-81
2021/09/04 05:12:13;;;;;;;28.92;23.65;;;17.30;99.90;;;;;;5014220;28;20543;-81
2021/09/04 05:14:39;;;;;;;28.70;21.88;;;17.20;99.90;;;;;;5012787;28;20038;-81
2021/09/04 05:17:04;;;;;;;31.63;24.25;;;17.20;99.90;;;;;;5013580;28;20030;-81
2021/09/04 05:19:30;;;;;;;33.40;26.63;;;17.20;99.90;;;;;;5014068;28;20057;-81
2021/09/04 05:21:57;;;;;;;37.05;24.33;;;17.20;99.90;;;;;;5013366;28;20532;-81
2021/09/04 05:24:22;;;;;;;30.77;24.70;;;17.20;99.90;;;;;;5014058;28;20037;-81
2021/09/04 05:26:48;;;;;;;32.90;24.65;;;17.20;99.90;;;;;;5015890;28;20029;-81
2021/09/04 05:29:14;;;;;;;28.13;23.52;;;17.20;99.90;;;;;;5014883;28;20038;-81
2021/09/04 05:31:40;;;;;;;26.48;22.10;;;17.10;99.90;;;;;;5014171;28;20021;-81
2021/09/04 05:34:06;;;;;;;26.95;22.35;;;17.10;99.90;;;;;;5013899;28;20040;-81
2021/09/04 05:36:31;;;;;;;29.73;21.88;;;17.10;99.90;;;;;;5013355;28;20033;-81
2021/09/04 05:38:57;;;;;;;25.58;21.77;;;17.10;99.90;;;;;;5013492;28;20382;-81
2021/09/04 05:41:22;;;;;;;27.35;21.83;;;17.00;99.90;;;;;;5012371;28;20080;-81
2021/09/04 05:43:48;;;;;;;27.08;21.25;;;17.00;99.90;;;;;;5013414;28;20513;-81
2021/09/04 05:46:14;;;;;;;26.85;21.23;;;17.00;99.90;;;;;;5013522;28;20025;-81
2021/09/04 05:48:39;;;;;;;28.77;21.27;;;17.00;99.90;;;;;;5013412;28;20397;-81
2021/09/04 05:51:05;;;;;;;25.80;20.20;;;17.00;99.90;;;;;;5013125;28;20037;-81
2021/09/04 05:53:31;;;;;;;25.02;20.48;;;17.00;99.90;;;;;;5013413;28;20127;-81
2021/09/04 05:55:57;;;;;;;28.77;22.35;;;17.10;99.90;;;;;;5012115;28;20038;-81
2021/09/04 05:58:25;;;;;;;28.80;23.40;;;17.10;99.90;;;;;;5011755;28;20100;-81
2021/09/04 06:00:52;;;;;;;24.98;20.23;;;17.20;99.90;;;;;;5013228;28;20030;-81
2021/09/04 06:03:18;;;;;;;25.13;21.20;;;17.40;99.90;;;;;;5013242;28;20057;-81
2021/09/04 06:05:44;;;;;;;26.20;21.92;;;17.40;99.90;;;;;;5028232;28;20412;-80
2021/09/04 06:08:09;;;;;;;29.98;22.90;;;17.50;99.90;;;;;;5044930;28;20113;-81
2021/09/04 06:10:35;;;;;;;28.65;20.13;;;17.60;99.90;;;;;;5012036;28;20053;-81
2021/09/04 06:13:00;;;;;;;23.98;20.98;;;17.70;99.90;;;;;;5028414;28;20022;-81
2021/09/04 06:15:26;;;;;;;24.00;19.42;;;17.80;99.90;;;;;;5013134;28;20493;-81
2021/09/04 06:17:52;;;;;;;25.20;20.67;;;17.90;99.90;;;;;;5012515;28;20025;-80
2021/09/04 06:20:18;;;;;;;27.52;19.95;;;17.90;99.90;;;;;;5012788;28;20018;-80
2021/09/04 06:22:44;;;;;;;20.85;17.95;;;18.00;99.90;;;;;;5011973;28;20072;-80
2021/09/04 06:25:10;;;;;;;22.88;17.65;;;18.00;99.90;;;;;;5011752;28;20033;-80
2021/09/04 06:27:36;;;;;;;22.02;17.15;;;18.10;99.90;;;;;;5044207;28;20033;-80
2021/09/04 06:30:03;;;;;;;20.02;16.15;;;18.20;99.90;;;;;;5012542;28;20022;-81
2021/09/04 06:32:29;;;;;;;22.00;15.65;;;18.30;99.90;;;;;;5012813;28;20026;-81
2021/09/04 06:34:55;;;;;;;19.88;15.05;;;18.40;99.90;;;;;;5012687;28;20026;-81
2021/09/04 06:37:20;;;;;;;23.13;15.88;;;18.60;99.90;;;;;;5011386;28;20053;-80
2021/09/04 06:39:46;;;;;;;18.70;14.85;;;18.60;99.90;;;;;;5010875;28;20401;-81
2021/09/04 06:42:12;;;;;;;21.58;15.95;;;18.80;99.90;;;;;;5012135;28;20034;-81
2021/09/04 06:44:37;;;;;;;21.50;15.18;;;18.80;99.90;;;;;;5009171;28;20109;-81
2021/09/04 06:47:03;;;;;;;17.95;14.68;;;18.80;99.90;;;;;;5012688;28;20026;-81
2021/09/04 06:49:28;;;;;;;20.02;15.35;;;18.90;99.90;;;;;;5012388;28;20436;-80
2021/09/04 06:51:54;;;;;;;16.95;14.23;;;18.90;99.90;;;;;;5012092;28;20038;-80
2021/09/04 06:54:24;;;;;;;15.80;14.10;;;19.00;99.90;;;;;;5012585;28;20025;-81
2021/09/04 06:56:53;;;;;;;17.55;14.82;;;19.10;99.90;;;;;;5011636;28;20057;-81
2021/09/04 06:59:19;;;;;;;16.42;14.50;;;19.20;99.90;;;;;;5012606;28;20061;-81
2021/09/04 07:01:45;;;;;;;16.95;13.93;;;19.40;99.90;;;;;;5011299;28;20057;-81
2021/09/04 07:04:11;;;;;;;20.50;13.68;;;19.50;99.90;;;;;;5012256;28;20065;-81
2021/09/04 07:06:37;;;;;;;17.42;13.63;;;19.60;99.90;;;;;;5012610;28;20057;-81
2021/09/04 07:09:03;;;;;;;15.48;13.85;;;19.70;99.90;;;;;;5012128;28;20072;-81
2021/09/04 07:11:29;;;;;;;15.45;13.65;;;19.70;99.90;;;;;;5011036;28;20607;-81
2021/09/04 07:13:55;;;;;;;18.13;14.93;;;19.80;99.90;;;;;;5012533;28;20101;-81
2021/09/04 07:16:21;;;;;;;15.48;12.98;;;19.90;99.90;;;;;;5010733;28;20044;-81
2021/09/04 07:18:47;;;;;;;14.95;12.27;;;20.00;99.90;;;;;;5010834;28;20026;-81
2021/09/04 07:21:13;;;;;;;20.08;16.35;;;20.00;99.90;;;;;;5011953;28;20033;-81
2021/09/04 07:23:39;;;;;;;18.58;16.40;;;19.90;99.90;;;;;;5012155;28;20112;-80
2021/09/04 07:26:05;;;;;;;16.90;15.13;;;19.90;99.90;;;;;;5009824;28;20116;-81
2021/09/04 07:28:30;;;;;;;17.88;14.57;;;20.10;99.90;;;;;;5012064;28;20025;-81
2021/09/04 07:30:57;;;;;;;17.17;14.65;;;20.10;99.90;;;;;;5012372;28;20084;-80
2021/09/04 07:33:22;;;;;;;20.40;15.57;;;20.20;99.90;;;;;;5013817;28;20072;-81
2021/09/04 07:35:48;;;;;;;18.45;15.68;;;20.30;99.90;;;;;;5016107;28;20030;-81
2021/09/04 07:38:14;;;;;;;25.08;16.40;;;20.30;99.90;;;;;;5015718;28;20477;-80
2021/09/04 07:40:40;;;;;;;17.13;15.32;;;20.30;99.90;;;;;;5014739;28;20033;-80
2021/09/04 07:43:07;;;;;;;17.13;14.50;;;20.30;99.90;;;;;;5015609;28;20060;-80
2021/09/04 07:45:35;;;;;;;24.00;14.45;;;20.50;99.90;;;;;;5015652;28;20014;-80
2021/09/04 07:48:00;;;;;;;15.93;14.02;;;20.50;99.90;;;;;;5015641;28;20028;-80
2021/09/04 07:50:26;;;;;;;16.90;14.13;;;20.60;99.90;;;;;;5015565;28;20373;-80
2021/09/04 07:52:51;;;;;;;13.80;12.40;;;21.30;99.90;;;;;;5015772;28;20444;-80
2021/09/04 07:55:18;;;;;;;14.85;11.25;;;23.50;99.90;;;;;;5014418;28;20136;-81
2021/09/04 07:57:43;;;;;;;12.50;10.05;;;25.60;99.90;;;;;;5015465;28;20037;-81
2021/09/04 08:00:10;;;;;;;13.18;10.25;;;26.90;99.10;;;;;;5015517;28;20056;-81
2021/09/04 08:02:35;;;;;;;10.95;9.35;;;27.90;96.70;;;;;;5015591;28;20033;-81
2021/09/04 08:05:01;;;;;;;10.40;9.35;;;28.00;95.30;;;;;;5015325;28;20037;-81
2021/09/04 08:07:27;;;;;;;9.82;8.82;;;28.40;94.10;;;;;;5015530;28;20088;-81
2021/09/04 08:09:52;;;;;;;12.68;8.52;;;29.00;93.70;;;;;;5015147;28;20041;-79
2021/09/04 08:12:18;;;;;;;12.02;8.65;;;29.40;92.10;;;;;;5015173;28;20026;-78
2021/09/04 08:14:43;;;;;;;10.27;7.95;;;30.00;91.30;;;;;;5015214;28;20025;-78
2021/09/04 08:17:09;;;;;;;11.13;8.10;;;30.40;90.70;;;;;;5014630;28;20037;-78
2021/09/04 08:19:35;;;;;;;10.00;8.63;;;30.70;90.40;;;;;;5014997;28;20076;-79
2021/09/04 08:22:02;;;;;;;8.95;8.00;;;31.30;88.10;;;;;;5014759;28;20444;-78
2021/09/04 08:24:28;;;;;;;7.55;6.95;;;30.80;88.00;;;;;;5013869;28;20446;-78
2021/09/04 08:26:54;;;;;;;7.75;6.97;;;30.80;87.60;;;;;;5013802;28;20026;-78
2021/09/04 08:29:19;;;;;;;9.38;6.90;;;31.10;87.30;;;;;;5014688;28;20124;-78
2021/09/04 08:31:45;;;;;;;8.13;6.18;;;30.90;87.40;;;;;;5014931;28;20504;-78
2021/09/04 08:34:13;;;;;;;11.15;7.15;;;29.40;90.20;;;;;;5014861;28;20021;-77
2021/09/04 08:36:38;;;;;;;9.73;8.40;;;27.50;92.40;;;;;;5015064;28;20084;-77
2021/09/04 08:39:04;;;;;;;9.15;7.28;;;26.00;95.10;;;;;;5012911;28;20029;-80
2021/09/04 08:41:32;;;;;;;10.20;7.65;;;25.30;96.80;;;;;;5013385;28;20151;-81
2021/09/04 08:43:58;;;;;;;10.80;7.18;;;24.60;97.80;;;;;;5013936;28;20145;-81
2021/09/04 08:46:29;;;;;;;7.82;6.40;;;24.20;99.20;;;;;;5014368;28;20025;-81
2021/09/04 08:48:55;;;;;;;9.68;6.97;;;24.00;99.90;;;;;;5014610;28;20030;-81
2021/09/04 08:51:21;;;;;;;9.85;7.10;;;23.70;99.90;;;;;;5014312;28;20032;-81
2021/09/04 08:53:46;;;;;;;9.77;8.10;;;23.40;99.90;;;;;;5014463;28;20022;-81
2021/09/04 08:56:12;;;;;;;9.95;7.50;;;23.20;99.90;;;;;;5013154;28;20040;-81
2021/09/04 08:58:38;;;;;;;10.70;8.20;;;23.20;99.90;;;;;;5014456;28;20026;-81
2021/09/04 09:01:22;;;;;;;10.85;8.38;;;23.20;99.90;;;;;;5014360;28;20041;-81
2021/09/04 09:03:49;;;;;;;8.50;7.28;;;23.20;99.90;;;;;;5014276;28;20033;-81
2021/09/04 09:06:29;;;;;;;13.18;7.97;;;23.20;99.90;;;;;;5014192;28;20397;-81
2021/09/04 09:08:55;;;;;;;10.07;9.07;;;23.10;99.90;;;;;;5014111;28;20382;-81
2021/09/04 09:11:22;;;;;;;10.60;9.48;;;22.90;99.90;;;;;;5014137;28;20022;-81
2021/09/04 09:13:53;;;;;;;13.60;8.88;;;23.00;99.90;;;;;;5012891;28;20117;-81
2021/09/04 09:16:21;;;;;;;10.57;8.40;;;22.80;99.90;;;;;;5012107;28;20121;-81
2021/09/04 09:19:02;;;;;;;9.90;8.23;;;22.90;99.90;;;;;;5012457;28;20073;-81
2021/09/04 09:21:31;;;;;;;12.00;9.15;;;22.90;99.90;;;;;;5013994;28;20072;-81
2021/09/04 09:24:07;;;;;;;15.10;9.20;;;22.80;99.90;;;;;;5013914;28;20053;-81
2021/09/04 09:26:33;;;;;;;13.15;10.65;;;23.00;99.90;;;;;;5012922;28;20508;-81
2021/09/04 09:29:18;;;;;;;11.68;10.45;;;23.00;99.90;;;;;;5045278;28;20080;-81
2021/09/04 09:31:43;;;;;;;14.45;9.60;;;22.80;99.90;;;;;;5014014;28;20030;-81
2021/09/04 09:34:10;;;;;;;13.68;9.88;;;22.90;99.90;;;;;;5013793;28;20049;-81
2021/09/04 09:36:49;;;;;;;18.45;10.63;;;22.80;99.90;;;;;;5014089;28;20036;-81
2021/09/04 09:39:15;;;;;;;11.45;8.88;;;22.70;99.90;;;;;;5013098;28;20550;-81
2021/09/04 09:41:51;;;;;;;12.13;8.90;;;22.70;99.90;;;;;;5012603;28;20025;-81
2021/09/04 09:44:18;;;;;;;11.80;8.15;;;22.80;99.90;;;;;;5001727;28;20109;-81
2021/09/04 09:47:00;;;;;;;11.23;7.55;;;22.80;99.90;;;;;;4994132;28;20401;-81
2021/09/04 09:49:50;;;;;;;8.95;7.95;;;23.00;99.90;;;;;;4993831;28;20025;-81
2021/09/04 09:52:17;;;;;;;8.57;7.32;;;23.00;99.90;;;;;;4993551;28;20551;-81
2021/09/04 09:54:47;;;;;;;8.63;7.25;;;23.20;99.90;;;;;;5025490;28;20117;-80
2021/09/04 09:57:13;;;;;;;6.60;5.60;;;23.40;99.90;;;;;;5010311;28;20069;-80
2021/09/04 09:59:42;;;;;;;8.68;5.60;;;23.50;99.90;;;;;;5013227;28;20034;-79
2021/09/04 10:02:10;;;;;;;9.48;7.07;;;23.50;99.90;;;;;;5013477;28;20037;-81
2021/09/04 10:04:38;;;;;;;6.03;5.32;;;23.50;99.90;;;;;;5013537;28;20404;-81
2021/09/04 10:07:06;;;;;;;6.88;4.93;;;23.50;99.90;;;;;;5013316;28;20034;-81
2021/09/04 10:09:32;;;;;;;6.70;5.13;;;23.70;99.90;;;;;;5013206;28;20025;-80
2021/09/04 10:11:58;;;;;;;8.00;5.25;;;23.90;99.90;;;;;;5011443;28;20026;-80
2021/09/04 10:14:25;;;;;;;9.50;4.90;;;23.70;99.90;;;;;;5013253;28;20374;-81
2021/09/04 10:16:55;;;;;;;7.78;5.30;;;23.90;99.90;;;;;;5013105;28;20061;-80
2021/09/04 10:19:33;;;;;;;7.55;5.35;;;23.60;99.90;;;;;;5012947;28;20104;-80
2021/09/04 10:22:01;;;;;;;8.02;6.10;;;23.70;99.90;;;;;;5012541;28;20054;-80
2021/09/04 10:24:47;;;;;;;6.55;5.70;;;23.70;99.90;;;;;;5013035;28;20022;-81
2021/09/04 10:27:28;;;;;;;7.22;5.45;;;23.80;99.90;;;;;;5011902;28;20045;-81
2021/09/04 10:29:54;;;;;;;7.80;5.88;;;23.70;99.90;;;;;;5012805;28;20049;-80
2021/09/04 10:32:20;;;;;;;7.90;5.72;;;23.50;99.90;;;;;;5012706;28;20061;-81
2021/09/04 10:34:47;;;;;;;7.10;5.65;;;23.40;99.90;;;;;;5012825;28;20030;-80
2021/09/04 10:37:15;;;;;;;12.18;5.53;;;23.20;99.90;;;;;;5011522;28;20049;-80
2021/09/04 10:39:55;;;;;;;8.02;6.18;;;23.10;99.90;;;;;;5012834;28;20101;-80
2021/09/04 10:42:22;;;;;;;11.07;5.40;;;23.10;99.90;;;;;;5010972;28;20069;-80
2021/09/04 10:44:55;;;;;;;6.30;5.43;;;23.00;99.90;;;;;;4999113;28;20033;-81
2021/09/04 10:47:21;;;;;;;7.40;4.82;;;23.00;99.90;;;;;;5012840;28;20499;-80
2021/09/04 10:49:56;;;;;;;6.93;4.50;;;23.00;99.90;;;;;;5012548;28;20093;-80
2021/09/04 10:53:02;;;;;;;4.68;4.28;;;23.00;99.90;;;;;;5012154;28;20022;-80
2021/09/04 10:55:28;;;;;;;5.68;5.07;;;23.00;99.90;;;;;;5009732;28;20520;-80
2021/09/04 10:58:09;;;;;;;6.00;4.47;;;23.00;99.90;;;;;;5012520;28;20084;-80
2021/09/04 11:00:43;;;;;;;5.15;4.22;;;22.90;99.90;;;;;;5012721;28;20018;-80
2021/09/04 11:03:23;;;;;;;4.88;4.47;;;23.00;99.90;;;;;;5011153;28;20030;-81
2021/09/04 11:05:54;;;;;;;8.18;3.70;;;23.00;99.90;;;;;;5012147;28;20026;-80
2021/09/04 11:08:20;;;;;;;7.13;4.20;;;23.20;99.90;;;;;;5014702;28;20499;-80
2021/09/04 11:10:49;;;;;;;5.15;3.97;;;23.10;99.90;;;;;;5015519;28;20133;-80
2021/09/04 11:13:18;;;;;;;4.22;3.47;;;22.80;99.90;;;;;;5015085;28;20030;-80
2021/09/04 11:15:48;;;;;;;7.13;4.13;;;22.80;99.90;;;;;;5016179;28;20101;-80
2021/09/04 11:18:18;;;;;;;5.95;3.92;;;22.80;99.90;;;;;;5016028;28;20026;-80
2021/09/04 11:20:46;;;;;;;6.05;4.00;;;22.70;99.90;;;;;;5016309;28;20486;-80
2021/09/04 11:23:25;;;;;;;4.90;3.53;;;22.70;99.90;;;;;;5015793;28;20057;-81
2021/09/04 11:25:52;;;;;;;3.85;3.47;;;22.70;99.90;;;;;;5014981;28;20030;-80
2021/09/04 11:28:31;;;;;;;4.97;4.07;;;22.60;99.90;;;;;;5016028;28;20018;-81
2021/09/04 11:30:57;;;;;;;3.92;3.40;;;22.50;99.90;;;;;;5015836;28;20022;-80
2021/09/04 11:33:23;;;;;;;4.55;3.75;;;22.70;99.90;;;;;;5014572;28;20495;-81
2021/09/04 11:35:49;;;;;;;5.13;3.60;;;22.60;99.90;;;;;;5015725;28;20022;-81
2021/09/04 11:38:15;;;;;;;3.70;3.40;;;22.60;99.90;;;;;;5015888;28;20109;-80
2021/09/04 11:40:43;;;;;;;4.45;3.28;;;22.50;99.90;;;;;;5015969;28;20025;-80
2021/09/04 11:43:09;;;;;;;3.80;3.40;;;22.60;99.90;;;;;;5014175;28;20033;-80
2021/09/04 11:45:35;;;;;;;3.95;3.40;;;22.90;99.90;;;;;;5015744;28;20028;-80
2021/09/04 11:48:06;;;;;;;3.22;2.85;;;22.90;99.90;;;;;;5015746;28;20018;-80
2021/09/04 11:50:32;;;;;;;4.32;2.70;;;23.00;99.90;;;;;;5015184;28;20034;-80
2021/09/04 11:52:59;;;;;;;3.50;3.15;;;23.10;99.90;;;;;;5015490;28;20026;-80
2021/09/04 11:55:29;;;;;;;5.18;3.35;;;23.10;99.90;;;;;;5014353;28;20042;-80
2021/09/04 11:57:57;;;;;;;3.20;2.95;;;23.40;99.90;;;;;;5015589;28;20837;-81
2021/09/04 12:00:26;;;;;;;4.85;3.22;;;23.50;99.40;;;;;;5015407;28;20074;-81
2021/09/04 12:03:03;;;;;;;5.30;3.42;;;23.40;99.50;;;;;;5014186;28;20077;-80
2021/09/04 12:05:43;;;;;;;4.47;3.22;;;23.50;99.50;;;;;;5015495;28;20050;-80
2021/09/04 12:08:28;;;;;;;6.55;2.97;;;23.80;98.90;;;;;;5015588;28;20528;-80
2021/09/04 12:11:03;;;;;;;3.38;2.97;;;24.30;98.90;;;;;;5015471;28;20136;-80
2021/09/04 12:13:29;;;;;;;5.40;3.05;;;24.60;97.90;;;;;;5015165;28;20018;-81
2021/09/04 12:15:58;;;;;;;3.38;2.90;;;24.80;97.40;;;;;;5013643;28;20065;-80
2021/09/04 12:18:28;;;;;;;3.42;3.13;;;25.00;97.20;;;;;;5014745;28;20018;-81
2021/09/04 12:20:54;;;;;;;3.33;2.97;;;25.20;96.60;;;;;;5014095;28;20030;-80
2021/09/04 12:23:21;;;;;;;3.42;2.75;;;25.30;96.70;;;;;;5014609;28;20512;-81
2021/09/04 12:25:49;;;;;;;3.95;3.13;;;25.10;96.50;;;;;;5014142;28;20029;-80
2021/09/04 12:28:26;;;;;;;4.70;3.05;;;25.40;96.40;;;;;;5014784;28;20481;-80
2021/09/04 12:31:17;;;;;;;3.90;2.97;;;25.40;96.60;;;;;;5015188;28;20401;-80
2021/09/04 12:33:52;;;;;;;3.20;2.90;;;25.70;95.80;;;;;;4995280;28;20085;-81